San Francisco, California
Traffic Map
Current Weather Conditions
San Francisco, California
Overcast
Overcast
16°
Feels Like: 16°
Wind Chill: 16° Ceiling: 10000
Heat Index: 16° Visibility: 10mi
Dew Point: 11° Wind: 5mph
Humidity: 75% Direction: 280° (W)
Pressure: 29.76in Gusts: 0mph
Raw Report DataKSFO 010556Z 28004KT 10SM FEW022 OVC100 16/11 A2976 RMK AO2 SLP078 T01560111 10156 20150 55002 $
Traffic Incident Summary
Active as of:
Severity:
Category:
InformationThere was an issue retrieving the traffic information for this location. Please try a different location or try again shortly.
Advertisements
Track Severe Weather on mobile